sensor_id;sensor_type;location;lat;lon;timestamp;temperature;humidity
296;DHT22;132;48.770;9.200;2022-07-18T00:01:00;19.10;1.00
296;DHT22;132;48.770;9.200;2022-07-18T00:03:47;19.10;1.00
296;DHT22;132;48.770;9.200;2022-07-18T00:06:33;19.10;1.00
296;DHT22;132;48.770;9.200;2022-07-18T00:09:21;19.00;1.00
296;DHT22;132;48.770;9.200;2022-07-18T00:12:10;19.00;1.00
296;DHT22;132;48.770;9.200;2022-07-18T00:14:57;19.00;1.00
296;DHT22;132;48.770;9.200;2022-07-18T00:17:44;18.90;1.00
296;DHT22;132;48.770;9.200;2022-07-18T00:20:30;18.90;1.00
296;DHT22;132;48.770;9.200;2022-07-18T00:23:17;18.90;1.00
296;DHT22;132;48.770;9.200;2022-07-18T00:26:04;18.80;1.00
296;DHT22;132;48.770;9.200;2022-07-18T00:28:50;18.80;1.00
296;DHT22;132;48.770;9.200;2022-07-18T00:31:38;18.70;1.00
296;DHT22;132;48.770;9.200;2022-07-18T00:34:24;18.70;1.00
296;DHT22;132;48.770;9.200;2022-07-18T00:37:11;18.60;1.00
296;DHT22;132;48.770;9.200;2022-07-18T00:39:57;18.60;1.00
296;DHT22;132;48.770;9.200;2022-07-18T00:42:45;18.60;1.00
296;DHT22;132;48.770;9.200;2022-07-18T00:45:31;18.50;1.00
296;DHT22;132;48.770;9.200;2022-07-18T00:48:18;18.50;1.00
296;DHT22;132;48.770;9.200;2022-07-18T00:51:05;18.50;1.00
296;DHT22;132;48.770;9.200;2022-07-18T00:53:52;18.50;1.00
296;DHT22;132;48.770;9.200;2022-07-18T00:56:39;18.40;1.00
296;DHT22;132;48.770;9.200;2022-07-18T00:59:26;18.40;1.00
296;DHT22;132;48.770;9.200;2022-07-18T01:02:33;18.30;1.00
296;DHT22;132;48.770;9.200;2022-07-18T01:05:19;18.30;1.00
296;DHT22;132;48.770;9.200;2022-07-18T01:08:06;18.20;1.00
296;DHT22;132;48.770;9.200;2022-07-18T01:10:53;18.20;1.00
296;DHT22;132;48.770;9.200;2022-07-18T01:13:41;18.20;1.00
296;DHT22;132;48.770;9.200;2022-07-18T01:16:28;18.10;1.00
296;DHT22;132;48.770;9.200;2022-07-18T01:19:15;18.10;1.00
296;DHT22;132;48.770;9.200;2022-07-18T01:22:02;18.00;1.00
296;DHT22;132;48.770;9.200;2022-07-18T01:24:48;18.00;1.00
296;DHT22;132;48.770;9.200;2022-07-18T01:27:35;18.00;1.00
296;DHT22;132;48.770;9.200;2022-07-18T01:30:23;18.00;1.00
296;DHT22;132;48.770;9.200;2022-07-18T01:33:10;17.90;1.00
296;DHT22;132;48.770;9.200;2022-07-18T01:35:58;17.90;1.00
296;DHT22;132;48.770;9.200;2022-07-18T01:38:46;17.90;1.00
296;DHT22;132;48.770;9.200;2022-07-18T01:41:32;17.80;1.00
296;DHT22;132;48.770;9.200;2022-07-18T01:44:19;17.80;1.00
296;DHT22;132;48.770;9.200;2022-07-18T01:47:07;17.70;1.00
296;DHT22;132;48.770;9.200;2022-07-18T01:49:54;17.70;1.00
296;DHT22;132;48.770;9.200;2022-07-18T01:52:41;17.70;1.00
296;DHT22;132;48.770;9.200;2022-07-18T01:55:28;17.60;1.00
296;DHT22;132;48.770;9.200;2022-07-18T01:58:14;17.60;1.00
296;DHT22;132;48.770;9.200;2022-07-18T02:01:02;17.60;1.00
296;DHT22;132;48.770;9.200;2022-07-18T02:03:48;17.60;1.00
296;DHT22;132;48.770;9.200;2022-07-18T02:06:35;17.50;1.00
296;DHT22;132;48.770;9.200;2022-07-18T02:09:22;17.50;1.00
296;DHT22;132;48.770;9.200;2022-07-18T02:12:08;17.50;1.00
296;DHT22;132;48.770;9.200;2022-07-18T02:14:55;17.40;1.00
296;DHT22;132;48.770;9.200;2022-07-18T02:17:42;17.40;1.00
296;DHT22;132;48.770;9.200;2022-07-18T02:20:30;17.40;1.00
296;DHT22;132;48.770;9.200;2022-07-18T02:27:07;17.40;1.00
296;DHT22;132;48.770;9.200;2022-07-18T02:29:54;17.30;1.00
296;DHT22;132;48.770;9.200;2022-07-18T02:32:40;17.30;1.00
296;DHT22;132;48.770;9.200;2022-07-18T02:35:27;17.30;1.00
296;DHT22;132;48.770;9.200;2022-07-18T02:38:14;17.20;1.00
296;DHT22;132;48.770;9.200;2022-07-18T02:41:00;17.20;1.00
296;DHT22;132;48.770;9.200;2022-07-18T02:43:47;17.20;1.00
296;DHT22;132;48.770;9.200;2022-07-18T02:46:34;17.20;1.00
296;DHT22;132;48.770;9.200;2022-07-18T02:49:20;17.10;1.00
296;DHT22;132;48.770;9.200;2022-07-18T02:52:13;17.10;1.00
296;DHT22;132;48.770;9.200;2022-07-18T02:55:00;17.00;1.00
296;DHT22;132;48.770;9.200;2022-07-18T02:57:47;17.00;1.00
296;DHT22;132;48.770;9.200;2022-07-18T03:00:34;16.90;1.00
296;DHT22;132;48.770;9.200;2022-07-18T03:03:20;16.90;1.00
296;DHT22;132;48.770;9.200;2022-07-18T03:06:07;16.90;1.00
296;DHT22;132;48.770;9.200;2022-07-18T03:08:54;17.00;1.00
296;DHT22;132;48.770;9.200;2022-07-18T03:11:40;16.80;1.00
296;DHT22;132;48.770;9.200;2022-07-18T03:14:27;16.80;1.00
296;DHT22;132;48.770;9.200;2022-07-18T03:17:14;16.70;1.00
296;DHT22;132;48.770;9.200;2022-07-18T03:20:00;16.70;1.00
296;DHT22;132;48.770;9.200;2022-07-18T03:22:47;16.70;1.00
296;DHT22;132;48.770;9.200;2022-07-18T03:25:34;16.70;1.00
296;DHT22;132;48.770;9.200;2022-07-18T03:28:20;16.60;1.00
296;DHT22;132;48.770;9.200;2022-07-18T03:31:07;16.60;1.00
296;DHT22;132;48.770;9.200;2022-07-18T03:33:54;16.60;1.00
296;DHT22;132;48.770;9.200;2022-07-18T03:36:41;16.60;1.00
296;DHT22;132;48.770;9.200;2022-07-18T03:39:28;16.60;1.00
296;DHT22;132;48.770;9.200;2022-07-18T03:42:14;16.60;1.00
296;DHT22;132;48.770;9.200;2022-07-18T03:45:01;16.50;1.00
296;DHT22;132;48.770;9.200;2022-07-18T03:47:48;16.50;1.00
296;DHT22;132;48.770;9.200;2022-07-18T03:50:34;16.60;1.00
296;DHT22;132;48.770;9.200;2022-07-18T03:53:21;16.50;1.00
296;DHT22;132;48.770;9.200;2022-07-18T03:58:55;16.50;1.00
296;DHT22;132;48.770;9.200;2022-07-18T04:01:41;16.50;1.00
296;DHT22;132;48.770;9.200;2022-07-18T04:04:28;16.50;1.00
296;DHT22;132;48.770;9.200;2022-07-18T04:07:15;16.50;1.00
296;DHT22;132;48.770;9.200;2022-07-18T04:10:02;16.50;1.00
296;DHT22;132;48.770;9.200;2022-07-18T04:12:51;16.60;1.00
296;DHT22;132;48.770;9.200;2022-07-18T04:15:38;16.60;1.00
296;DHT22;132;48.770;9.200;2022-07-18T04:18:25;16.60;1.00
296;DHT22;132;48.770;9.200;2022-07-18T04:21:11;16.60;1.00
296;DHT22;132;48.770;9.200;2022-07-18T04:23:59;16.60;1.00
296;DHT22;132;48.770;9.200;2022-07-18T04:26:45;16.70;1.00
296;DHT22;132;48.770;9.200;2022-07-18T04:29:32;16.70;1.00
296;DHT22;132;48.770;9.200;2022-07-18T04:32:18;16.80;1.00
296;DHT22;132;48.770;9.200;2022-07-18T04:35:06;16.80;1.00
296;DHT22;132;48.770;9.200;2022-07-18T04:37:52;16.90;1.00
296;DHT22;132;48.770;9.200;2022-07-18T04:40:39;16.90;1.00
296;DHT22;132;48.770;9.200;2022-07-18T04:43:26;17.00;1.00
296;DHT22;132;48.770;9.200;2022-07-18T04:46:12;17.00;1.00
296;DHT22;132;48.770;9.200;2022-07-18T04:48:59;17.10;1.00
296;DHT22;132;48.770;9.200;2022-07-18T04:51:46;17.10;1.00
296;DHT22;132;48.770;9.200;2022-07-18T04:54:32;17.20;1.00
296;DHT22;132;48.770;9.200;2022-07-18T04:57:19;17.20;1.00
296;DHT22;132;48.770;9.200;2022-07-18T05:00:09;17.20;1.00
296;DHT22;132;48.770;9.200;2022-07-18T05:02:57;17.30;1.00
296;DHT22;132;48.770;9.200;2022-07-18T05:05:43;17.40;1.00
296;DHT22;132;48.770;9.200;2022-07-18T05:08:30;17.40;1.00
296;DHT22;132;48.770;9.200;2022-07-18T05:11:17;17.50;1.00
296;DHT22;132;48.770;9.200;2022-07-18T05:14:03;17.60;1.00
296;DHT22;132;48.770;9.200;2022-07-18T05:16:50;17.60;1.00
296;DHT22;132;48.770;9.200;2022-07-18T05:19:37;17.70;1.00
296;DHT22;132;48.770;9.200;2022-07-18T05:22:23;17.80;1.00
296;DHT22;132;48.770;9.200;2022-07-18T05:25:11;17.90;1.00
296;DHT22;132;48.770;9.200;2022-07-18T05:27:57;18.00;1.00
296;DHT22;132;48.770;9.200;2022-07-18T05:30:44;18.00;1.00
296;DHT22;132;48.770;9.200;2022-07-18T05:33:31;18.10;1.00
296;DHT22;132;48.770;9.200;2022-07-18T05:36:18;18.20;1.00
296;DHT22;132;48.770;9.200;2022-07-18T05:39:04;18.30;1.00
296;DHT22;132;48.770;9.200;2022-07-18T05:41:52;18.40;1.00
296;DHT22;132;48.770;9.200;2022-07-18T05:44:39;18.40;1.00
296;DHT22;132;48.770;9.200;2022-07-18T05:47:25;18.50;1.00
296;DHT22;132;48.770;9.200;2022-07-18T05:50:12;18.60;1.00
296;DHT22;132;48.770;9.200;2022-07-18T05:52:59;18.70;1.00
296;DHT22;132;48.770;9.200;2022-07-18T05:55:45;18.70;1.00
296;DHT22;132;48.770;9.200;2022-07-18T05:58:32;18.80;1.00
296;DHT22;132;48.770;9.200;2022-07-18T06:01:19;18.90;1.00
296;DHT22;132;48.770;9.200;2022-07-18T06:04:06;19.00;1.00
296;DHT22;132;48.770;9.200;2022-07-18T06:06:53;19.00;1.00
296;DHT22;132;48.770;9.200;2022-07-18T06:09:39;19.10;1.00
296;DHT22;132;48.770;9.200;2022-07-18T06:12:29;19.20;1.00
296;DHT22;132;48.770;9.200;2022-07-18T06:15:17;19.30;1.00
296;DHT22;132;48.770;9.200;2022-07-18T06:18:03;19.40;1.00
296;DHT22;132;48.770;9.200;2022-07-18T06:20:50;19.50;1.00
296;DHT22;132;48.770;9.200;2022-07-18T06:23:37;19.60;1.00
296;DHT22;132;48.770;9.200;2022-07-18T06:26:25;19.60;1.00
296;DHT22;132;48.770;9.200;2022-07-18T06:29:11;19.70;1.00
296;DHT22;132;48.770;9.200;2022-07-18T06:31:58;19.70;1.00
296;DHT22;132;48.770;9.200;2022-07-18T06:34:45;19.80;1.00
296;DHT22;132;48.770;9.200;2022-07-18T06:37:31;19.90;1.00
296;DHT22;132;48.770;9.200;2022-07-18T06:40:18;20.00;1.00
296;DHT22;132;48.770;9.200;2022-07-18T06:43:05;20.00;1.00
296;DHT22;132;48.770;9.200;2022-07-18T06:45:52;20.20;1.00
296;DHT22;132;48.770;9.200;2022-07-18T06:48:39;20.30;1.00
296;DHT22;132;48.770;9.200;2022-07-18T06:51:25;20.40;1.00
296;DHT22;132;48.770;9.200;2022-07-18T06:54:12;20.40;1.00
296;DHT22;132;48.770;9.200;2022-07-18T06:56:58;20.60;1.00
296;DHT22;132;48.770;9.200;2022-07-18T06:59:46;20.70;1.00
296;DHT22;132;48.770;9.200;2022-07-18T07:02:32;20.80;1.00
296;DHT22;132;48.770;9.200;2022-07-18T07:05:20;21.70;1.00
296;DHT22;132;48.770;9.200;2022-07-18T07:08:07;21.00;1.00
296;DHT22;132;48.770;9.200;2022-07-18T07:10:54;21.10;1.00
296;DHT22;132;48.770;9.200;2022-07-18T07:13:40;21.30;1.00
296;DHT22;132;48.770;9.200;2022-07-18T07:16:27;21.40;1.00
296;DHT22;132;48.770;9.200;2022-07-18T07:19:14;21.50;1.00
296;DHT22;132;48.770;9.200;2022-07-18T07:22:01;21.70;1.00
296;DHT22;132;48.770;9.200;2022-07-18T07:24:48;21.80;1.00
296;DHT22;132;48.770;9.200;2022-07-18T07:27:34;21.90;1.00
296;DHT22;132;48.770;9.200;2022-07-18T07:30:21;22.00;1.00
296;DHT22;132;48.770;9.200;2022-07-18T07:33:08;22.10;1.00
296;DHT22;132;48.770;9.200;2022-07-18T07:35:55;22.20;1.00
296;DHT22;132;48.770;9.200;2022-07-18T07:38:42;22.30;1.00
296;DHT22;132;48.770;9.200;2022-07-18T07:41:28;22.50;1.00
296;DHT22;132;48.770;9.200;2022-07-18T07:44:15;22.60;1.00
296;DHT22;132;48.770;9.200;2022-07-18T07:47:02;22.80;1.00
296;DHT22;132;48.770;9.200;2022-07-18T07:49:48;23.00;1.00
296;DHT22;132;48.770;9.200;2022-07-18T07:52:35;23.10;1.00
296;DHT22;132;48.770;9.200;2022-07-18T07:55:22;23.20;1.00
296;DHT22;132;48.770;9.200;2022-07-18T07:58:08;23.30;1.00
296;DHT22;132;48.770;9.200;2022-07-18T08:00:55;23.40;1.00
296;DHT22;132;48.770;9.200;2022-07-18T08:03:42;23.60;1.00
296;DHT22;132;48.770;9.200;2022-07-18T08:06:31;23.60;1.00
296;DHT22;132;48.770;9.200;2022-07-18T08:09:17;23.70;1.00
296;DHT22;132;48.770;9.200;2022-07-18T08:12:04;23.90;1.00
296;DHT22;132;48.770;9.200;2022-07-18T08:14:51;24.00;1.00
296;DHT22;132;48.770;9.200;2022-07-18T08:17:38;24.10;1.00
296;DHT22;132;48.770;9.200;2022-07-18T08:20:25;24.10;1.00
296;DHT22;132;48.770;9.200;2022-07-18T08:23:11;24.20;1.00
296;DHT22;132;48.770;9.200;2022-07-18T08:25:58;24.30;1.00
296;DHT22;132;48.770;9.200;2022-07-18T08:28:45;24.50;1.00
296;DHT22;132;48.770;9.200;2022-07-18T08:31:32;24.60;1.00
296;DHT22;132;48.770;9.200;2022-07-18T08:34:19;24.80;1.00
296;DHT22;132;48.770;9.200;2022-07-18T08:37:05;24.80;1.00
296;DHT22;132;48.770;9.200;2022-07-18T08:39:52;24.90;1.00
296;DHT22;132;48.770;9.200;2022-07-18T08:42:40;25.00;1.00
296;DHT22;132;48.770;9.200;2022-07-18T08:45:26;25.10;1.00
296;DHT22;132;48.770;9.200;2022-07-18T08:48:17;25.30;1.00
296;DHT22;132;48.770;9.200;2022-07-18T08:51:04;25.30;1.00
296;DHT22;132;48.770;9.200;2022-07-18T08:53:51;25.30;1.00
296;DHT22;132;48.770;9.200;2022-07-18T08:56:39;25.40;1.00
296;DHT22;132;48.770;9.200;2022-07-18T08:59:26;25.40;1.00
296;DHT22;132;48.770;9.200;2022-07-18T09:02:12;25.50;1.00
296;DHT22;132;48.770;9.200;2022-07-18T09:05:01;25.60;1.00
296;DHT22;132;48.770;9.200;2022-07-18T09:07:48;25.70;1.00
296;DHT22;132;48.770;9.200;2022-07-18T09:10:50;25.80;1.00
296;DHT22;132;48.770;9.200;2022-07-18T09:13:39;25.90;1.00
296;DHT22;132;48.770;9.200;2022-07-18T09:16:26;26.00;1.00
296;DHT22;132;48.770;9.200;2022-07-18T09:19:16;26.20;1.00
296;DHT22;132;48.770;9.200;2022-07-18T09:25:10;26.40;1.00
296;DHT22;132;48.770;9.200;2022-07-18T09:27:58;26.60;1.00
296;DHT22;132;48.770;9.200;2022-07-18T09:30:45;26.70;1.00
296;DHT22;132;48.770;9.200;2022-07-18T09:33:31;26.70;1.00
296;DHT22;132;48.770;9.200;2022-07-18T09:36:18;26.80;1.00
296;DHT22;132;48.770;9.200;2022-07-18T09:39:18;26.90;1.00
296;DHT22;132;48.770;9.200;2022-07-18T09:42:16;27.00;1.00
296;DHT22;132;48.770;9.200;2022-07-18T09:45:02;27.00;1.00
296;DHT22;132;48.770;9.200;2022-07-18T09:47:52;27.20;1.00
296;DHT22;132;48.770;9.200;2022-07-18T09:53:37;27.40;1.00
296;DHT22;132;48.770;9.200;2022-07-18T09:56:24;27.50;1.00
296;DHT22;132;48.770;9.200;2022-07-18T09:59:11;27.60;1.00
296;DHT22;132;48.770;9.200;2022-07-18T10:01:59;27.80;1.00
296;DHT22;132;48.770;9.200;2022-07-18T10:04:46;27.80;1.00
296;DHT22;132;48.770;9.200;2022-07-18T10:07:33;27.80;1.00
296;DHT22;132;48.770;9.200;2022-07-18T10:10:20;28.00;1.00
296;DHT22;132;48.770;9.200;2022-07-18T10:13:08;28.00;1.00
296;DHT22;132;48.770;9.200;2022-07-18T10:15:54;28.10;1.00
296;DHT22;132;48.770;9.200;2022-07-18T10:18:41;28.20;1.00
296;DHT22;132;48.770;9.200;2022-07-18T10:21:28;28.40;1.00
296;DHT22;132;48.770;9.200;2022-07-18T10:24:18;28.40;1.00
296;DHT22;132;48.770;9.200;2022-07-18T10:27:19;28.40;1.00
296;DHT22;132;48.770;9.200;2022-07-18T10:30:10;28.50;1.00
296;DHT22;132;48.770;9.200;2022-07-18T10:32:58;28.60;1.00
296;DHT22;132;48.770;9.200;2022-07-18T10:36:03;28.70;1.00
296;DHT22;132;48.770;9.200;2022-07-18T10:39:09;28.70;1.00
296;DHT22;132;48.770;9.200;2022-07-18T10:44:49;28.60;1.00
296;DHT22;132;48.770;9.200;2022-07-18T10:47:36;28.60;1.00
296;DHT22;132;48.770;9.200;2022-07-18T10:50:23;28.70;1.00
296;DHT22;132;48.770;9.200;2022-07-18T10:53:09;28.70;1.00
296;DHT22;132;48.770;9.200;2022-07-18T10:55:56;28.60;1.00
296;DHT22;132;48.770;9.200;2022-07-18T10:58:43;28.70;1.00
296;DHT22;132;48.770;9.200;2022-07-18T11:01:31;28.80;1.00
296;DHT22;132;48.770;9.200;2022-07-18T11:04:38;29.00;1.00
296;DHT22;132;48.770;9.200;2022-07-18T11:07:25;29.00;1.00
296;DHT22;132;48.770;9.200;2022-07-18T11:10:12;29.10;1.00
296;DHT22;132;48.770;9.200;2022-07-18T11:16:13;29.30;1.00
296;DHT22;132;48.770;9.200;2022-07-18T11:21:56;29.60;1.00
296;DHT22;132;48.770;9.200;2022-07-18T11:24:43;29.70;1.00
296;DHT22;132;48.770;9.200;2022-07-18T11:27:30;29.80;1.00
296;DHT22;132;48.770;9.200;2022-07-18T11:30:21;30.00;1.00
296;DHT22;132;48.770;9.200;2022-07-18T11:33:24;30.20;1.00
296;DHT22;132;48.770;9.200;2022-07-18T11:36:15;30.30;1.00
296;DHT22;132;48.770;9.200;2022-07-18T11:39:03;30.30;1.00
296;DHT22;132;48.770;9.200;2022-07-18T11:41:50;30.40;1.00
296;DHT22;132;48.770;9.200;2022-07-18T11:44:37;30.40;1.00
296;DHT22;132;48.770;9.200;2022-07-18T11:47:25;30.40;1.00
296;DHT22;132;48.770;9.200;2022-07-18T11:50:12;30.30;1.00
296;DHT22;132;48.770;9.200;2022-07-18T11:52:59;30.40;1.00
296;DHT22;132;48.770;9.200;2022-07-18T11:55:46;30.40;1.00
296;DHT22;132;48.770;9.200;2022-07-18T11:58:37;30.50;1.00
296;DHT22;132;48.770;9.200;2022-07-18T12:01:31;30.60;1.00
296;DHT22;132;48.770;9.200;2022-07-18T12:04:22;30.60;1.00
296;DHT22;132;48.770;9.200;2022-07-18T12:07:33;30.70;1.00
296;DHT22;132;48.770;9.200;2022-07-18T12:10:20;30.90;1.00
296;DHT22;132;48.770;9.200;2022-07-18T12:13:07;31.00;1.00
296;DHT22;132;48.770;9.200;2022-07-18T12:15:53;31.10;1.00
296;DHT22;132;48.770;9.200;2022-07-18T12:18:52;31.00;1.00
296;DHT22;132;48.770;9.200;2022-07-18T12:24:53;31.00;1.00
296;DHT22;132;48.770;9.200;2022-07-18T12:27:48;31.20;1.00
296;DHT22;132;48.770;9.200;2022-07-18T12:30:35;31.20;1.00
296;DHT22;132;48.770;9.200;2022-07-18T12:33:21;31.20;1.00
296;DHT22;132;48.770;9.200;2022-07-18T12:36:08;31.20;1.00
296;DHT22;132;48.770;9.200;2022-07-18T12:39:02;31.30;1.00
296;DHT22;132;48.770;9.200;2022-07-18T12:41:49;31.50;1.00
296;DHT22;132;48.770;9.200;2022-07-18T12:44:35;31.60;1.00
296;DHT22;132;48.770;9.200;2022-07-18T12:47:22;31.70;1.00
296;DHT22;132;48.770;9.200;2022-07-18T12:50:09;31.80;1.00
296;DHT22;132;48.770;9.200;2022-07-18T12:52:57;32.00;1.00
296;DHT22;132;48.770;9.200;2022-07-18T12:55:43;32.20;1.00
296;DHT22;132;48.770;9.200;2022-07-18T12:58:30;32.20;1.00
296;DHT22;132;48.770;9.200;2022-07-18T13:01:17;32.20;1.00
296;DHT22;132;48.770;9.200;2022-07-18T13:04:04;32.30;1.00
296;DHT22;132;48.770;9.200;2022-07-18T13:06:51;32.40;1.00
296;DHT22;132;48.770;9.200;2022-07-18T13:09:38;32.50;1.00
296;DHT22;132;48.770;9.200;2022-07-18T13:12:25;32.40;1.00
296;DHT22;132;48.770;9.200;2022-07-18T13:15:11;32.40;1.00
296;DHT22;132;48.770;9.200;2022-07-18T13:17:58;32.20;1.00
296;DHT22;132;48.770;9.200;2022-07-18T13:20:45;32.30;1.00
296;DHT22;132;48.770;9.200;2022-07-18T13:23:31;32.40;1.00
296;DHT22;132;48.770;9.200;2022-07-18T13:26:18;32.60;1.00
296;DHT22;132;48.770;9.200;2022-07-18T13:29:05;32.70;1.00
296;DHT22;132;48.770;9.200;2022-07-18T13:31:52;32.90;1.00
296;DHT22;132;48.770;9.200;2022-07-18T13:34:39;33.00;1.00
296;DHT22;132;48.770;9.200;2022-07-18T13:37:26;33.10;1.00
296;DHT22;132;48.770;9.200;2022-07-18T13:40:13;33.20;1.00
296;DHT22;132;48.770;9.200;2022-07-18T13:43:00;33.40;1.00
296;DHT22;132;48.770;9.200;2022-07-18T13:45:47;33.70;1.00
296;DHT22;132;48.770;9.200;2022-07-18T13:48:34;34.00;1.00
296;DHT22;132;48.770;9.200;2022-07-18T13:51:20;34.40;1.00
296;DHT22;132;48.770;9.200;2022-07-18T13:54:07;34.90;1.00
296;DHT22;132;48.770;9.200;2022-07-18T13:56:54;35.40;1.00
296;DHT22;132;48.770;9.200;2022-07-18T13:59:40;36.00;1.00
296;DHT22;132;48.770;9.200;2022-07-18T14:02:27;36.40;1.00
296;DHT22;132;48.770;9.200;2022-07-18T14:05:17;37.00;1.00
296;DHT22;132;48.770;9.200;2022-07-18T14:08:04;37.40;1.00
296;DHT22;132;48.770;9.200;2022-07-18T14:10:51;37.80;1.00
296;DHT22;132;48.770;9.200;2022-07-18T14:13:38;38.10;1.00
296;DHT22;132;48.770;9.200;2022-07-18T14:16:24;38.70;1.00
296;DHT22;132;48.770;9.200;2022-07-18T14:19:11;39.10;1.00
296;DHT22;132;48.770;9.200;2022-07-18T14:21:59;39.30;1.00
296;DHT22;132;48.770;9.200;2022-07-18T14:24:45;39.40;1.00
296;DHT22;132;48.770;9.200;2022-07-18T14:27:33;39.50;1.00
296;DHT22;132;48.770;9.200;2022-07-18T14:30:19;39.60;1.00
296;DHT22;132;48.770;9.200;2022-07-18T14:33:06;39.60;1.00
296;DHT22;132;48.770;9.200;2022-07-18T14:35:53;39.80;1.00
296;DHT22;132;48.770;9.200;2022-07-18T14:38:39;39.90;1.00
296;DHT22;132;48.770;9.200;2022-07-18T14:41:26;40.10;1.00
296;DHT22;132;48.770;9.200;2022-07-18T14:44:13;40.20;1.00
296;DHT22;132;48.770;9.200;2022-07-18T14:46:59;40.40;1.00
296;DHT22;132;48.770;9.200;2022-07-18T14:49:46;40.50;1.00
296;DHT22;132;48.770;9.200;2022-07-18T14:52:33;40.80;1.00
296;DHT22;132;48.770;9.200;2022-07-18T14:55:20;41.20;1.00
296;DHT22;132;48.770;9.200;2022-07-18T14:58:06;41.20;1.00
296;DHT22;132;48.770;9.200;2022-07-18T15:00:53;41.00;1.00
296;DHT22;132;48.770;9.200;2022-07-18T15:03:40;41.00;1.00
296;DHT22;132;48.770;9.200;2022-07-18T15:06:27;41.20;1.00
296;DHT22;132;48.770;9.200;2022-07-18T15:09:14;41.30;1.00
296;DHT22;132;48.770;9.200;2022-07-18T15:12:01;41.50;1.00
296;DHT22;132;48.770;9.200;2022-07-18T15:14:48;41.50;1.00
296;DHT22;132;48.770;9.200;2022-07-18T15:17:35;41.70;1.00
296;DHT22;132;48.770;9.200;2022-07-18T15:20:22;41.80;1.00
296;DHT22;132;48.770;9.200;2022-07-18T15:23:09;41.80;1.00
296;DHT22;132;48.770;9.200;2022-07-18T15:25:56;41.70;1.00
296;DHT22;132;48.770;9.200;2022-07-18T15:28:42;41.60;1.00
296;DHT22;132;48.770;9.200;2022-07-18T15:31:29;41.60;1.00
296;DHT22;132;48.770;9.200;2022-07-18T15:34:15;41.90;1.00
296;DHT22;132;48.770;9.200;2022-07-18T15:37:02;41.90;1.00
296;DHT22;132;48.770;9.200;2022-07-18T15:39:49;42.00;1.00
296;DHT22;132;48.770;9.200;2022-07-18T15:42:36;42.10;1.00
296;DHT22;132;48.770;9.200;2022-07-18T15:45:23;42.10;1.00
296;DHT22;132;48.770;9.200;2022-07-18T15:48:09;42.00;1.00
296;DHT22;132;48.770;9.200;2022-07-18T15:50:56;41.50;1.00
296;DHT22;132;48.770;9.200;2022-07-18T15:53:43;41.30;1.00
296;DHT22;132;48.770;9.200;2022-07-18T15:56:29;40.90;1.00
296;DHT22;132;48.770;9.200;2022-07-18T15:59:16;40.60;1.00
296;DHT22;132;48.770;9.200;2022-07-18T16:02:03;40.10;1.00
296;DHT22;132;48.770;9.200;2022-07-18T16:04:51;39.60;1.00
296;DHT22;132;48.770;9.200;2022-07-18T16:07:38;38.90;1.00
296;DHT22;132;48.770;9.200;2022-07-18T16:10:25;38.20;1.00
296;DHT22;132;48.770;9.200;2022-07-18T16:13:12;37.40;1.00
296;DHT22;132;48.770;9.200;2022-07-18T16:15:58;36.80;1.00
296;DHT22;132;48.770;9.200;2022-07-18T16:18:45;36.10;1.00
296;DHT22;132;48.770;9.200;2022-07-18T16:21:32;35.60;1.00
296;DHT22;132;48.770;9.200;2022-07-18T16:24:18;35.20;1.00
296;DHT22;132;48.770;9.200;2022-07-18T16:27:05;34.80;1.00
296;DHT22;132;48.770;9.200;2022-07-18T16:29:52;34.40;1.00
296;DHT22;132;48.770;9.200;2022-07-18T16:32:38;34.00;1.00
296;DHT22;132;48.770;9.200;2022-07-18T16:35:25;33.80;1.00
296;DHT22;132;48.770;9.200;2022-07-18T16:38:12;33.50;1.00
296;DHT22;132;48.770;9.200;2022-07-18T16:40:59;33.30;1.00
296;DHT22;132;48.770;9.200;2022-07-18T16:43:46;33.10;1.00
296;DHT22;132;48.770;9.200;2022-07-18T16:46:32;32.90;1.00
296;DHT22;132;48.770;9.200;2022-07-18T16:49:19;32.60;1.00
296;DHT22;132;48.770;9.200;2022-07-18T16:52:06;32.50;1.00
296;DHT22;132;48.770;9.200;2022-07-18T16:54:53;32.30;1.00
296;DHT22;132;48.770;9.200;2022-07-18T16:57:40;32.20;1.00
296;DHT22;132;48.770;9.200;2022-07-18T17:00:27;32.10;1.00
296;DHT22;132;48.770;9.200;2022-07-18T17:03:14;32.00;1.00
296;DHT22;132;48.770;9.200;2022-07-18T17:06:01;32.00;1.00
296;DHT22;132;48.770;9.200;2022-07-18T17:08:47;31.90;1.00
296;DHT22;132;48.770;9.200;2022-07-18T17:11:34;31.80;1.00
296;DHT22;132;48.770;9.200;2022-07-18T17:14:21;31.80;1.00
296;DHT22;132;48.770;9.200;2022-07-18T17:17:08;31.70;1.00
296;DHT22;132;48.770;9.200;2022-07-18T17:19:55;31.70;1.00
296;DHT22;132;48.770;9.200;2022-07-18T17:22:43;31.60;1.00
296;DHT22;132;48.770;9.200;2022-07-18T17:25:30;31.50;1.00
296;DHT22;132;48.770;9.200;2022-07-18T17:28:17;31.50;1.00
296;DHT22;132;48.770;9.200;2022-07-18T17:31:04;31.30;1.00
296;DHT22;132;48.770;9.200;2022-07-18T17:33:51;31.20;1.00
296;DHT22;132;48.770;9.200;2022-07-18T17:36:40;31.10;1.00
296;DHT22;132;48.770;9.200;2022-07-18T17:39:27;31.00;1.00
296;DHT22;132;48.770;9.200;2022-07-18T17:42:14;30.80;1.00
296;DHT22;132;48.770;9.200;2022-07-18T17:45:03;30.70;1.00
296;DHT22;132;48.770;9.200;2022-07-18T17:47:52;30.70;1.00
296;DHT22;132;48.770;9.200;2022-07-18T17:50:39;30.60;1.00
296;DHT22;132;48.770;9.200;2022-07-18T17:53:26;30.50;1.00
296;DHT22;132;48.770;9.200;2022-07-18T17:56:13;30.40;1.00
296;DHT22;132;48.770;9.200;2022-07-18T17:59:03;30.40;1.00
296;DHT22;132;48.770;9.200;2022-07-18T18:01:49;30.30;1.00
296;DHT22;132;48.770;9.200;2022-07-18T18:04:36;30.30;1.00
296;DHT22;132;48.770;9.200;2022-07-18T18:07:22;30.20;1.00
296;DHT22;132;48.770;9.200;2022-07-18T18:10:09;30.20;1.00
296;DHT22;132;48.770;9.200;2022-07-18T18:12:56;30.10;1.00
296;DHT22;132;48.770;9.200;2022-07-18T18:15:43;30.00;1.00
296;DHT22;132;48.770;9.200;2022-07-18T18:18:30;29.90;1.00
296;DHT22;132;48.770;9.200;2022-07-18T18:21:17;29.80;1.00
296;DHT22;132;48.770;9.200;2022-07-18T18:24:04;29.60;1.00
296;DHT22;132;48.770;9.200;2022-07-18T18:26:51;29.50;1.00
296;DHT22;132;48.770;9.200;2022-07-18T18:29:37;29.50;1.00
296;DHT22;132;48.770;9.200;2022-07-18T18:32:24;29.30;1.00
296;DHT22;132;48.770;9.200;2022-07-18T18:35:11;29.20;1.00
296;DHT22;132;48.770;9.200;2022-07-18T18:37:58;29.10;1.00
296;DHT22;132;48.770;9.200;2022-07-18T18:40:44;29.00;1.00
296;DHT22;132;48.770;9.200;2022-07-18T18:43:31;28.90;1.00
296;DHT22;132;48.770;9.200;2022-07-18T18:46:18;28.80;1.00
296;DHT22;132;48.770;9.200;2022-07-18T18:49:04;28.70;1.00
296;DHT22;132;48.770;9.200;2022-07-18T18:51:52;28.60;1.00
296;DHT22;132;48.770;9.200;2022-07-18T18:54:40;28.50;1.00
296;DHT22;132;48.770;9.200;2022-07-18T18:57:27;28.40;1.00
296;DHT22;132;48.770;9.200;2022-07-18T19:00:13;28.30;1.00
296;DHT22;132;48.770;9.200;2022-07-18T19:03:07;28.20;1.00
296;DHT22;132;48.770;9.200;2022-07-18T19:05:54;27.60;1.00
296;DHT22;132;48.770;9.200;2022-07-18T19:08:40;28.00;1.00
296;DHT22;132;48.770;9.200;2022-07-18T19:11:27;27.80;1.00
296;DHT22;132;48.770;9.200;2022-07-18T19:14:15;27.70;1.00
296;DHT22;132;48.770;9.200;2022-07-18T19:17:02;27.60;1.00
296;DHT22;132;48.770;9.200;2022-07-18T19:19:49;27.50;1.00
296;DHT22;132;48.770;9.200;2022-07-18T19:22:35;27.30;1.00
296;DHT22;132;48.770;9.200;2022-07-18T19:25:22;27.20;1.00
296;DHT22;132;48.770;9.200;2022-07-18T19:28:11;27.10;1.00
296;DHT22;132;48.770;9.200;2022-07-18T19:30:58;27.00;1.00
296;DHT22;132;48.770;9.200;2022-07-18T19:33:48;26.90;1.00